createdAt,value
2023-03-07T00:00:15.811Z,99575.78
2023-03-07T00:02:44.714Z,99570.56
2023-03-07T00:05:14.893Z,99570.56
2023-03-07T00:07:43.458Z,99570.56
2023-03-07T00:10:13.661Z,99561.94
2023-03-07T00:12:42.232Z,99565.38
2023-03-07T00:15:12.033Z,99565.38
2023-03-07T00:17:40.842Z,99572.28
2023-03-07T00:20:14.368Z,99563.66
2023-03-07T00:22:43.678Z,99560.19
2023-03-07T00:25:14.985Z,99565.38
2023-03-07T00:27:43.485Z,99554.13
2023-03-07T00:30:13.038Z,99548.06
2023-03-07T00:32:41.673Z,99552.41
2023-03-07T00:35:10.577Z,99548.91
2023-03-07T00:37:39.841Z,99541.97
2023-03-07T00:40:10.833Z,99542.88
2023-03-07T00:42:40.455Z,99535.91
2023-03-07T00:45:10.884Z,99537.63
2023-03-07T00:47:39.164Z,99543.63
2023-03-07T00:50:08.552Z,99530.63
2023-03-07T00:52:37.413Z,99524.50
2023-03-07T00:55:06.744Z,99516.72
2023-03-07T00:57:35.306Z,99518.41
2023-03-07T01:00:07.226Z,99516.66
2023-03-07T01:02:35.787Z,99510.56
2023-03-07T01:05:04.933Z,99506.22
2023-03-07T01:07:33.517Z,99513.94
2023-03-07T01:10:02.209Z,99505.31
2023-03-07T01:12:30.803Z,99494.03
2023-03-07T01:14:59.342Z,99495.78
2023-03-07T01:17:28.928Z,99495.78
2023-03-07T01:19:57.459Z,99487.16
2023-03-07T01:22:25.918Z,99484.53
2023-03-07T01:24:54.431Z,99507.91
2023-03-07T01:27:22.668Z,99491.44
2023-03-07T01:29:51.355Z,99490.59
2023-03-07T01:32:19.970Z,99497.47
2023-03-07T01:34:49.556Z,99489.69
2023-03-07T01:37:18.858Z,99495.72
2023-03-07T01:39:48.070Z,99492.28
2023-03-07T01:42:18.783Z,99482.75
2023-03-07T01:45:03.563Z,99486.25
2023-03-07T01:47:41.180Z,99481.91
2023-03-07T01:50:15.946Z,99475.84
2023-03-07T01:52:50.852Z,99487.09
2023-03-07T01:55:23.604Z,99479.31
2023-03-07T01:57:57.627Z,99476.72
2023-03-07T02:00:29.773Z,99469.81
2023-03-07T02:03:09.660Z,99465.47
2023-03-07T02:05:46.421Z,99457.69
2023-03-07T02:08:17.699Z,99460.28
2023-03-07T02:10:46.658Z,99475.00
2023-03-07T02:13:15.305Z,99454.25
2023-03-07T02:15:44.871Z,99452.53
2023-03-07T02:18:19.111Z,99445.63
2023-03-07T02:21:00.537Z,99455.19
2023-03-07T02:23:41.597Z,99447.41
2023-03-07T02:26:17.720Z,99444.88
2023-03-07T02:28:48.917Z,99440.53
2023-03-07T02:31:18.641Z,99444.03
2023-03-07T02:33:47.345Z,99438.84
2023-03-07T02:36:21.493Z,99438.00
2023-03-07T02:39:02.616Z,99440.59
2023-03-07T02:41:34.486Z,99433.72
2023-03-07T02:44:09.704Z,99439.78
2023-03-07T02:46:38.346Z,99437.19
2023-03-07T02:49:06.818Z,99419.03
2023-03-07T02:51:35.426Z,99429.44
2023-03-07T02:54:04.083Z,99423.38
2023-03-07T02:56:32.811Z,99418.19
2023-03-07T02:59:01.293Z,99425.09
2023-03-07T03:01:31.585Z,99419.03
2023-03-07T03:04:00.454Z,99408.66
2023-03-07T03:06:28.668Z,99413.78
2023-03-07T03:08:56.884Z,99413.78
2023-03-07T03:11:25.609Z,99413.78
2023-03-07T03:13:54.063Z,99419.84
2023-03-07T03:16:23.550Z,99411.19
2023-03-07T03:18:53.125Z,99395.63
2023-03-07T03:21:21.697Z,99401.66
2023-03-07T03:23:50.241Z,99393.88
2023-03-07T03:26:19.141Z,99397.38
2023-03-07T03:28:47.652Z,99399.06
2023-03-07T03:31:16.749Z,99399.06
2023-03-07T03:33:46.067Z,99394.72
2023-03-07T03:36:18.114Z,99396.47
2023-03-07T03:38:50.222Z,99385.28
2023-03-07T03:41:18.462Z,99391.41
2023-03-07T03:43:48.876Z,99388.81
2023-03-07T03:46:19.569Z,99386.28
2023-03-07T03:48:53.281Z,99383.75
2023-03-07T03:51:25.621Z,99376.84
2023-03-07T03:53:57.506Z,99379.47
2023-03-07T03:56:27.748Z,99374.31
2023-03-07T03:58:57.850Z,99367.44
2023-03-07T04:01:29.416Z,99364.84
2023-03-07T04:03:59.494Z,99361.47
2023-03-07T04:06:32.421Z,99362.38
2023-03-07T04:09:02.295Z,99366.72
2023-03-07T04:11:30.787Z,99359.78
2023-03-07T04:13:59.908Z,99359.78
2023-03-07T04:16:28.767Z,99363.28
2023-03-07T04:18:57.507Z,99360.69
2023-03-07T04:21:26.120Z,99361.56
2023-03-07T04:23:58.557Z,99354.66
2023-03-07T04:26:32.445Z,99346.06
2023-03-07T04:29:01.191Z,99344.31
2023-03-07T04:31:36.035Z,99345.19
2023-03-07T04:34:05.923Z,99336.53
2023-03-07T04:36:34.809Z,99332.22
2023-03-07T04:39:05.253Z,99329.56
2023-03-07T04:41:34.627Z,99342.53
2023-03-07T04:44:10.638Z,99335.59
2023-03-07T04:46:39.236Z,99328.66
2023-03-07T04:49:07.772Z,99334.72
2023-03-07T04:51:36.690Z,99333.84
2023-03-07T04:54:06.344Z,99326.06
2023-03-07T04:56:35.357Z,99324.44
2023-03-07T04:59:04.569Z,99328.72
2023-03-07T05:01:33.197Z,99328.78
2023-03-07T05:04:02.627Z,99328.78
2023-03-07T05:06:31.281Z,99328.78
2023-03-07T05:08:59.867Z,99321.03
2023-03-07T05:11:30.019Z,99327.06
2023-03-07T05:13:58.570Z,99323.59
2023-03-07T05:16:27.889Z,99327.03
2023-03-07T05:18:56.474Z,99319.25
2023-03-07T05:21:25.132Z,99319.25
2023-03-07T05:23:53.697Z,99316.69
2023-03-07T05:26:22.355Z,99311.50
2023-03-07T05:28:51.987Z,99316.69
2023-03-07T05:31:20.504Z,99301.97
2023-03-07T05:33:48.896Z,99308.03
2023-03-07T05:36:17.641Z,99302.84
2023-03-07T05:38:46.292Z,99303.66
2023-03-07T05:41:14.870Z,99299.38
2023-03-07T05:43:45.385Z,99295.88
2023-03-07T05:46:15.652Z,99295.84
2023-03-07T05:48:44.413Z,99295.84
2023-03-07T05:51:12.894Z,99296.72
2023-03-07T05:53:41.736Z,99295.81
2023-03-07T05:56:10.415Z,99284.56
2023-03-07T05:58:39.784Z,99285.44
2023-03-07T06:01:08.469Z,99277.59
2023-03-07T06:03:38.461Z,99280.19
2023-03-07T06:06:07.632Z,99292.25
2023-03-07T06:08:36.176Z,99287.03
2023-03-07T06:11:04.584Z,99288.75
2023-03-07T06:13:33.421Z,99284.41
2023-03-07T06:16:02.021Z,99284.41
2023-03-07T06:18:30.605Z,99283.56
2023-03-07T06:21:02.210Z,99280.06
2023-03-07T06:23:36.066Z,99290.44
2023-03-07T06:26:10.245Z,99281.78
2023-03-07T06:28:39.394Z,99286.97
2023-03-07T06:31:10.617Z,99293.88
2023-03-07T06:33:39.288Z,99298.16
2023-03-07T06:36:11.936Z,99295.50
2023-03-07T06:38:42.557Z,99304.09
2023-03-07T06:41:12.048Z,99305.84
2023-03-07T06:43:41.370Z,99305.75
2023-03-07T06:46:09.970Z,99306.56
2023-03-07T06:48:42.075Z,99310.84
2023-03-07T06:51:16.258Z,99305.56
2023-03-07T06:53:47.288Z,99306.41
2023-03-07T06:56:15.808Z,99303.75
2023-03-07T06:58:45.233Z,99306.28
2023-03-07T07:01:19.473Z,99297.59
2023-03-07T07:03:51.024Z,99314.00
2023-03-07T07:06:21.492Z,99308.81
2023-03-07T07:08:50.838Z,99307.91
2023-03-07T07:11:19.451Z,99309.56
2023-03-07T07:13:48.106Z,99295.69
2023-03-07T07:16:20.672Z,99307.72
2023-03-07T07:18:51.926Z,99306.78
2023-03-07T07:21:22.589Z,99303.22
2023-03-07T07:23:50.822Z,99307.53
2023-03-07T07:26:19.847Z,99301.38
2023-03-07T07:28:48.321Z,99306.50
2023-03-07T07:31:16.904Z,99302.94
2023-03-07T07:33:46.521Z,99311.56
2023-03-07T07:36:16.648Z,99313.19
2023-03-07T07:38:46.965Z,99320.03
2023-03-07T07:41:15.755Z,99310.28
2023-03-07T07:43:46.573Z,99310.13
2023-03-07T07:46:28.308Z,99308.22
2023-03-07T07:48:57.194Z,99308.06
2023-03-07T07:51:28.083Z,99305.34
2023-03-07T07:53:57.832Z,99311.28
2023-03-07T07:56:26.077Z,99317.31
2023-03-07T07:58:54.723Z,99312.88
2023-03-07T08:01:25.832Z,99308.53
2023-03-07T08:03:54.729Z,99298.13
2023-03-07T08:06:25.483Z,99305.91
2023-03-07T08:08:54.298Z,99303.25
2023-03-07T08:11:24.959Z,99287.63
2023-03-07T08:13:54.035Z,99287.59
2023-03-07T08:16:24.142Z,99284.97
2023-03-07T08:18:55.808Z,99283.06
2023-03-07T08:21:25.343Z,99278.66
2023-03-07T08:23:55.052Z,99289.78
2023-03-07T08:26:25.365Z,99281.81
2023-03-07T08:28:53.906Z,99283.47
2023-03-07T08:31:24.573Z,99285.09
2023-03-07T08:33:53.692Z,99278.88
2023-03-07T08:36:22.197Z,99283.06
2023-03-07T08:38:52.434Z,99289.78
2023-03-07T08:41:22.226Z,99277.47
2023-03-07T08:43:51.884Z,99271.09
2023-03-07T08:46:20.217Z,99271.72
2023-03-07T08:48:48.943Z,99267.09
2023-03-07T08:51:19.230Z,99272.91
2023-03-07T08:53:47.947Z,99263.06
2023-03-07T08:56:19.196Z,99268.75
2023-03-07T08:58:47.738Z,99279.72
2023-03-07T09:01:17.284Z,99266.31
2023-03-07T09:03:45.930Z,99267.69
2023-03-07T09:06:18.815Z,99259.66
2023-03-07T09:08:48.288Z,99266.34
2023-03-07T09:11:17.842Z,99253.19
2023-03-07T09:13:52.634Z,99248.50
2023-03-07T09:16:24.604Z,99258.53
2023-03-07T09:18:53.308Z,99257.16
2023-03-07T09:21:21.628Z,99263.78
2023-03-07T09:23:50.008Z,99251.41
2023-03-07T09:26:18.459Z,99262.56
2023-03-07T09:28:46.953Z,99257.13
2023-03-07T09:31:17.058Z,99241.31
2023-03-07T09:33:47.233Z,99242.88
2023-03-07T09:36:18.005Z,99241.94
2023-03-07T09:38:47.173Z,99255.97
2023-03-07T09:41:57.595Z,99238.94
2023-03-07T09:44:50.297Z,99241.72
2023-03-07T09:48:53.440Z,99222.25
2023-03-07T09:51:26.112Z,99236.41
2023-03-07T09:53:58.838Z,99236.50
2023-03-07T09:56:33.499Z,99223.34
2023-03-07T09:59:20.480Z,99232.09
2023-03-07T10:01:55.747Z,99217.13
2023-03-07T10:04:34.156Z,99216.16
2023-03-07T10:07:05.935Z,99214.25
2023-03-07T10:09:35.303Z,99204.44
2023-03-07T10:12:37.511Z,99210.31
2023-03-07T10:15:24.436Z,99212.75
2023-03-07T10:18:09.876Z,99203.66
2023-03-07T10:20:46.780Z,99204.81
2023-03-07T10:23:38.111Z,99176.25
2023-03-07T10:26:12.641Z,99179.91
2023-03-07T10:28:43.633Z,99176.97
2023-03-07T10:31:23.655Z,99171.59
2023-03-07T10:33:54.491Z,99185.34
2023-03-07T10:36:38.342Z,99179.19
2023-03-07T10:39:21.549Z,99175.03
2023-03-07T10:41:50.272Z,99163.81
2023-03-07T10:44:21.614Z,99160.81
2023-03-07T10:46:56.920Z,99204.94
2023-03-07T10:49:29.092Z,99169.72
2023-03-07T10:52:04.164Z,99162.44
2023-03-07T10:54:36.591Z,99154.31
2023-03-07T10:57:12.270Z,99155.81
2023-03-07T10:59:44.001Z,99155.72
2023-03-07T11:02:32.333Z,99149.31
2023-03-07T11:05:01.065Z,99150.03
2023-03-07T11:07:32.315Z,99143.81
2023-03-07T11:10:23.551Z,99141.41
2023-03-07T11:12:52.223Z,99149.16
2023-03-07T11:15:24.580Z,99146.31
2023-03-07T11:17:54.515Z,99137.03
2023-03-07T11:20:25.372Z,99145.16
2023-03-07T11:23:23.293Z,99132.69
2023-03-07T11:25:54.696Z,99135.56
2023-03-07T11:28:30.935Z,99134.91
2023-03-07T11:31:14.752Z,99127.25
2023-03-07T11:33:59.764Z,99129.22
2023-03-07T11:36:33.399Z,99111.84
2023-03-07T11:39:08.248Z,99113.53
2023-03-07T11:41:38.625Z,99108.28
2023-03-07T11:44:26.452Z,99115.69
2023-03-07T11:47:15.260Z,99119.00
2023-03-07T11:49:58.367Z,99115.06
2023-03-07T11:52:52.962Z,99112.53
2023-03-07T11:55:31.647Z,99110.47
2023-03-07T11:58:20.682Z,99111.06
2023-03-07T12:01:06.213Z,99105.81
2023-03-07T12:04:03.008Z,99097.69
2023-03-07T12:06:39.792Z,99097.84
2023-03-07T12:09:24.707Z,99083.84
2023-03-07T12:12:10.982Z,99086.34
2023-03-07T12:14:51.125Z,99080.06
2023-03-07T12:17:43.526Z,99086.13
2023-03-07T12:20:29.660Z,99076.78
2023-03-07T12:23:17.206Z,99074.69
2023-03-07T12:25:50.485Z,99084.84
2023-03-07T12:28:27.918Z,99081.78
2023-03-07T12:31:08.348Z,99079.59
2023-03-07T12:33:55.113Z,99072.19
2023-03-07T12:36:34.096Z,99072.44
2023-03-07T12:39:14.131Z,99069.16
2023-03-07T12:41:59.474Z,99068.50
2023-03-07T12:44:36.851Z,99048.66
2023-03-07T12:47:17.623Z,99053.13
2023-03-07T12:49:54.697Z,99068.06
2023-03-07T12:52:36.530Z,99067.34
2023-03-07T12:55:17.785Z,99056.19
2023-03-07T12:57:54.419Z,99055.22
2023-03-07T13:00:24.456Z,99064.66
2023-03-07T13:03:02.140Z,99041.97
2023-03-07T13:05:38.111Z,99037.41
2023-03-07T13:08:08.978Z,99040.69
2023-03-07T13:10:38.007Z,99038.72
2023-03-07T13:13:56.908Z,99027.28
2023-03-07T13:16:40.865Z,99027.28
2023-03-07T13:19:44.685Z,99032.59
2023-03-07T13:22:58.127Z,99030.09
2023-03-07T13:26:15.020Z,99023.28
2023-03-07T13:28:51.235Z,99026.88
2023-03-07T13:31:45.601Z,99028.84
2023-03-07T13:34:55.786Z,99026.28
2023-03-07T13:37:55.411Z,99037.78
2023-03-07T13:40:52.844Z,99036.00
2023-03-07T13:44:01.514Z,99028.31
2023-03-07T13:46:51.063Z,99050.03
2023-03-07T13:49:46.320Z,99041.41
2023-03-07T13:52:45.722Z,99040.66
2023-03-07T13:55:41.801Z,99046.00
2023-03-07T13:58:24.708Z,99044.28
2023-03-07T14:00:58.860Z,99046.13
2023-03-07T14:03:36.778Z,99039.28
2023-03-07T14:06:12.584Z,99074.16
2023-03-07T14:08:41.820Z,99056.72
2023-03-07T14:11:22.979Z,99058.63
2023-03-07T14:14:28.720Z,99047.44
2023-03-07T14:17:15.412Z,99063.28
2023-03-07T14:19:55.896Z,99076.44
2023-03-07T14:22:42.526Z,99070.44
2023-03-07T14:25:22.899Z,99069.72
2023-03-07T14:27:57.964Z,99069.78
2023-03-07T14:30:28.432Z,99078.56
2023-03-07T14:32:56.959Z,99066.50
2023-03-07T14:35:42.029Z,99066.69
2023-03-07T14:38:18.663Z,99080.56
2023-03-07T14:41:09.683Z,99078.09
2023-03-07T14:43:54.553Z,99071.16
2023-03-07T14:46:34.618Z,99079.84
2023-03-07T14:49:16.877Z,99092.81
2023-03-07T14:51:46.786Z,99085.91
2023-03-07T14:54:19.385Z,99106.00
2023-03-07T14:56:51.171Z,99108.81
2023-03-07T14:59:28.606Z,99110.75
2023-03-07T15:02:00.120Z,99102.25
2023-03-07T15:04:31.295Z,99112.88
2023-03-07T15:07:04.413Z,99109.63
2023-03-07T15:09:34.546Z,99107.16
2023-03-07T15:12:08.293Z,99096.00
2023-03-07T15:14:45.410Z,99106.53
2023-03-07T15:17:18.164Z,99091.81
2023-03-07T15:19:49.762Z,99086.59
2023-03-07T15:22:25.021Z,99099.53
2023-03-07T15:24:54.661Z,99081.31
2023-03-07T15:27:27.970Z,99091.84
2023-03-07T15:29:56.986Z,99087.59
2023-03-07T15:32:35.248Z,99093.03
2023-03-07T15:35:15.322Z,99086.16
2023-03-07T15:37:56.190Z,99088.03
2023-03-07T15:40:29.882Z,99083.75
2023-03-07T15:43:02.229Z,99079.44
2023-03-07T15:45:34.967Z,99088.16
2023-03-07T15:48:11.085Z,99084.72
2023-03-07T15:50:39.659Z,99084.00
2023-03-07T15:53:19.374Z,99081.47
2023-03-07T15:55:57.603Z,99077.13
2023-03-07T15:58:27.031Z,99090.28
2023-03-07T16:01:18.504Z,99066.16
2023-03-07T16:03:53.774Z,99081.78
2023-03-07T16:06:37.009Z,99074.84
2023-03-07T16:09:08.338Z,99067.09
2023-03-07T16:11:38.165Z,99065.41
2023-03-07T16:14:07.012Z,99066.19
2023-03-07T16:16:35.617Z,99067.84
2023-03-07T16:19:04.134Z,99067.84
2023-03-07T16:21:32.659Z,99070.41
2023-03-07T16:24:01.240Z,99080.88
2023-03-07T16:26:32.022Z,99070.44
2023-03-07T16:29:01.547Z,99064.31
2023-03-07T16:31:30.159Z,99068.66
2023-03-07T16:33:58.758Z,99062.59
2023-03-07T16:36:27.399Z,99047.00
2023-03-07T16:38:55.867Z,99054.00
2023-03-07T16:41:24.354Z,99046.19
2023-03-07T16:43:57.109Z,99049.78
2023-03-07T16:46:26.558Z,99051.50
2023-03-07T16:48:54.852Z,99064.53
2023-03-07T16:51:26.026Z,99060.28
2023-03-07T16:53:56.645Z,99066.38
2023-03-07T16:56:29.501Z,99076.81
2023-03-07T16:59:01.034Z,99075.97
2023-03-07T17:01:29.607Z,99070.75
2023-03-07T17:03:57.803Z,99069.97
2023-03-07T17:06:38.401Z,99069.97
2023-03-07T17:09:09.695Z,99073.47
2023-03-07T17:11:39.945Z,99077.00
2023-03-07T17:14:12.289Z,99083.06
2023-03-07T17:16:45.003Z,99088.31
2023-03-07T17:19:25.904Z,99078.78
2023-03-07T17:21:54.614Z,99096.19
2023-03-07T17:24:23.092Z,99092.72
2023-03-07T17:26:53.466Z,99084.91
2023-03-07T17:29:30.112Z,99082.31
2023-03-07T17:31:58.534Z,99080.56
2023-03-07T17:34:29.581Z,99101.44
2023-03-07T17:36:59.032Z,99106.66
2023-03-07T17:39:28.395Z,99106.66
2023-03-07T17:41:56.828Z,99112.66
2023-03-07T17:44:26.372Z,99102.25
2023-03-07T17:46:55.443Z,99106.53
2023-03-07T17:49:24.291Z,99107.34
2023-03-07T17:51:53.012Z,99099.53
2023-03-07T17:54:21.602Z,99106.44
2023-03-07T17:56:50.144Z,99098.63
2023-03-07T17:59:18.680Z,99110.75
2023-03-07T18:01:48.297Z,99110.75
2023-03-07T18:04:16.986Z,99106.44
2023-03-07T18:06:45.543Z,99108.16
2023-03-07T18:09:15.232Z,99112.50
2023-03-07T18:11:43.753Z,99120.31
2023-03-07T18:14:12.653Z,99125.59
2023-03-07T18:16:43.722Z,99112.56
2023-03-07T18:19:25.403Z,99118.69
2023-03-07T18:21:54.903Z,99114.34
2023-03-07T18:24:26.335Z,99108.31
2023-03-07T18:26:55.753Z,99107.44
2023-03-07T18:29:25.050Z,99124.00
2023-03-07T18:31:53.892Z,99119.63
2023-03-07T18:34:24.894Z,99108.38
2023-03-07T18:36:54.291Z,99116.19
2023-03-07T18:39:23.633Z,99130.09
2023-03-07T18:41:52.370Z,99132.66
2023-03-07T18:44:20.935Z,99114.47
2023-03-07T18:46:49.520Z,99124.03
2023-03-07T18:49:18.150Z,99121.50
2023-03-07T18:51:48.440Z,99153.66
2023-03-07T18:54:17.424Z,99124.09
2023-03-07T18:56:47.778Z,99144.84
2023-03-07T18:59:17.274Z,99119.63
2023-03-07T19:01:50.067Z,99136.13
2023-03-07T19:04:19.066Z,99132.59
2023-03-07T19:06:49.823Z,99146.44
2023-03-07T19:09:20.806Z,99139.44
2023-03-07T19:11:49.443Z,99142.81
2023-03-07T19:14:17.977Z,99160.94
2023-03-07T19:16:46.810Z,99143.63
2023-03-07T19:19:15.374Z,99148.94
2023-03-07T19:21:43.939Z,99130.81
2023-03-07T19:24:13.841Z,99132.69
2023-03-07T19:26:43.261Z,99129.31
2023-03-07T19:29:12.978Z,99129.50
2023-03-07T19:31:43.677Z,99119.28
2023-03-07T19:34:12.470Z,99117.78
2023-03-07T19:36:42.345Z,99144.84
2023-03-07T19:39:15.034Z,99154.53
2023-03-07T19:41:47.821Z,99165.97
2023-03-07T19:44:16.945Z,99158.25
2023-03-07T19:46:47.054Z,99159.13
2023-03-07T19:49:16.315Z,99163.47
2023-03-07T19:51:44.607Z,99151.28
2023-03-07T19:54:14.936Z,99154.75
2023-03-07T19:56:45.604Z,99173.81
2023-03-07T19:59:14.846Z,99188.59
2023-03-07T20:01:43.678Z,99165.16
2023-03-07T20:04:13.316Z,99172.97
2023-03-07T20:06:43.129Z,99161.63
2023-03-07T20:09:13.141Z,99175.47
2023-03-07T20:11:43.220Z,99175.38
2023-03-07T20:14:14.405Z,99184.88
2023-03-07T20:16:43.335Z,99193.53
2023-03-07T20:19:11.862Z,99189.22
2023-03-07T20:21:42.385Z,99190.94
2023-03-07T20:24:10.795Z,99189.22
2023-03-07T20:26:40.841Z,99204.84
2023-03-07T20:29:10.669Z,99194.31
2023-03-07T20:31:40.988Z,99191.66
2023-03-07T20:34:09.782Z,99189.03
2023-03-07T20:36:39.316Z,99193.28
2023-03-07T20:39:13.064Z,99202.72
2023-03-07T20:41:42.815Z,99196.56
2023-03-07T20:44:14.205Z,99212.09
2023-03-07T20:46:44.768Z,99199.03
2023-03-07T20:49:14.827Z,99208.56
2023-03-07T20:51:44.215Z,99225.00
2023-03-07T20:54:15.472Z,99208.47
2023-03-07T20:56:45.496Z,99204.16
2023-03-07T20:59:16.620Z,99210.25
2023-03-07T21:01:46.697Z,99208.63
2023-03-07T21:04:17.737Z,99231.16
2023-03-07T21:06:48.061Z,99216.38
2023-03-07T21:09:17.934Z,99215.53
2023-03-07T21:11:49.070Z,99209.47
2023-03-07T21:14:19.580Z,99221.69
2023-03-07T21:16:49.350Z,99206.03
2023-03-07T21:19:18.974Z,99213.88
2023-03-07T21:21:47.485Z,99219.97
2023-03-07T21:24:16.470Z,99210.44
2023-03-07T21:26:52.105Z,99207.06
2023-03-07T21:29:20.416Z,99221.78
2023-03-07T21:31:50.148Z,99228.78
2023-03-07T21:34:18.808Z,99232.16
2023-03-07T21:36:47.898Z,99226.88
2023-03-07T21:39:16.475Z,99229.50
2023-03-07T21:41:45.093Z,99233.78
2023-03-07T21:44:14.427Z,99221.59
2023-03-07T21:46:42.734Z,99213.75
2023-03-07T21:49:13.053Z,99237.22
2023-03-07T21:51:41.332Z,99230.31
2023-03-07T21:54:10.063Z,99227.69
2023-03-07T21:56:38.833Z,99256.34
2023-03-07T21:59:07.796Z,99239.81
2023-03-07T22:01:36.391Z,99238.13
2023-03-07T22:04:04.933Z,99242.41
2023-03-07T22:06:36.690Z,99229.41
2023-03-07T22:09:05.684Z,99245.84
2023-03-07T22:11:34.190Z,99259.75
2023-03-07T22:14:02.732Z,99245.84
2023-03-07T22:16:31.231Z,99289.22
2023-03-07T22:18:59.515Z,99267.50
2023-03-07T22:21:27.926Z,99261.38
2023-03-07T22:24:00.978Z,99254.41
2023-03-07T22:26:31.598Z,99261.38
2023-03-07T22:29:00.375Z,99253.59
2023-03-07T22:31:28.661Z,99261.47
2023-03-07T22:33:58.746Z,99257.19
2023-03-07T22:36:27.258Z,99273.78
2023-03-07T22:38:57.372Z,99280.78
2023-03-07T22:41:26.517Z,99273.88
2023-03-07T22:43:55.038Z,99277.41
2023-03-07T22:46:23.929Z,99274.06
2023-03-07T22:48:57.552Z,99288.00
2023-03-07T22:51:27.046Z,99288.00
2023-03-07T22:53:56.996Z,99286.25
2023-03-07T22:56:28.055Z,99294.91
2023-03-07T22:58:56.680Z,99291.38
2023-03-07T23:01:27.858Z,99291.38
2023-03-07T23:03:58.698Z,99297.50
2023-03-07T23:06:30.363Z,99295.81
2023-03-07T23:09:01.884Z,99297.59
2023-03-07T23:11:32.907Z,99305.41
2023-03-07T23:14:02.001Z,99294.06
2023-03-07T23:16:32.535Z,99315.88
2023-03-07T23:19:01.361Z,99296.78
2023-03-07T23:21:33.095Z,99293.28
2023-03-07T23:24:04.968Z,99289.88
2023-03-07T23:26:35.917Z,99298.59
2023-03-07T23:29:05.670Z,99307.28
2023-03-07T23:31:36.599Z,99307.34
2023-03-07T23:34:07.526Z,99295.25
2023-03-07T23:36:36.305Z,99298.78
2023-03-07T23:39:06.705Z,99310.06
2023-03-07T23:41:35.405Z,99302.31
2023-03-07T23:44:04.434Z,99312.72
2023-03-07T23:46:33.554Z,99304.06
2023-03-07T23:49:02.107Z,99304.09
2023-03-07T23:51:30.845Z,99298.97
2023-03-07T23:53:59.373Z,99301.50
2023-03-07T23:56:28.976Z,99310.22
2023-03-07T23:58:57.255Z,99303.28
